Clackamas — WDF6614 — position and weather

sailwx.info

Track history (hours):
 
Tides and Currents Weather Stations Pressure Air Temp Water Temp Dewpoint Dewpoint Depression Visibility Wind Speed Wind Dir Waves Ship Positions

Clackamas

Owner: Port o Portland, Portland, OR. More information available from US FCC via Universal Licensing System and Coast Guard Vessel Documentation Center.

Last reported at 2017-May-27 00:12 UTC. Time now 2017-May-28 01:10 UTC.
Position N 45°37' W 122°43'.

MMSI: 367476049.

Date/timePositionNaut miles runAvg speedWind from/ knotsBaromVisibWave heightAir tempDewpointWater temp
2017-May-27 00:12N 45°37' W 122°43'0 2.1
2017-May-27 00:00N 45°37' W 122°43'2 4.1
2017-May-26 23:31N 45°39' W 122°45'3 5.9
2017-May-26 23:01N 45°36' W 122°47'3 6.6
2017-May-26 22:30N 45°34' W 122°43'0 0.0
2017-May-26 21:57N 45°34' W 122°43'0 0.0
2017-May-26 21:24N 45°34' W 122°43'0 0.0
2017-May-26 21:00N 45°34' W 122°43'0 0.0
2017-May-26 20:30N 45°34' W 122°43'0 0.0
2017-May-26 19:48N 45°34' W 122°43'0 0.0
2017-May-26 19:30N 45°34' W 122°43'0 0.1
2017-May-26 18:59N 45°34' W 122°43'0 0.1
2017-May-26 18:30N 45°34' W 122°43'0 0.0
2017-May-26 17:58N 45°34' W 122°43'0 0.0
2017-May-26 17:30N 45°34' W 122°43'0 0.1
2017-May-26 17:00N 45°34' W 122°43'0 0.0
2017-May-26 16:30N 45°34' W 122°43'0 0.0
2017-May-26 16:00N 45°34' W 122°43'0 0.0
2017-May-26 15:30N 45°34' W 122°43'0 0.0
2017-May-26 15:00N 45°34' W 122°43'0 0.1
2017-May-26 14:31N 45°34' W 122°43'0 0.0
2017-May-24 21:42N 45°34' W 122°43'0 0.0
2017-May-24 21:27N 45°34' W 122°43'0 0.0
2017-May-24 21:00N 45°34' W 122°43'0 0.0
2017-May-24 20:30N 45°34' W 122°43'0 0.0
2017-May-24 19:57N 45°34' W 122°43'0 0.0
2017-May-24 19:21N 45°34' W 122°43'0 0.0
2017-May-24 18:57N 45°34' W 122°43'0 0.0
2017-May-24 18:30N 45°34' W 122°43'0 0.0
2017-May-24 17:58N 45°34' W 122°43'0 0.0
2017-May-24 17:28N 45°34' W 122°43'0 0.0
2017-May-24 17:01N 45°34' W 122°43'0 0.2
2017-May-24 16:26N 45°34' W 122°43'0 0.2
2017-May-24 15:56N 45°34' W 122°43'0 0.1
2017-May-24 15:28N 45°34' W 122°43'0 0.0
2017-May-24 14:55N 45°34' W 122°43'0 0.0
2017-May-24 14:28N 45°34' W 122°43'0 0.0
2017-May-24 13:25N 45°34' W 122°43'0 0.0
2017-May-24 12:59N 45°34' W 122°43'3 5.4
2017-May-24 12:30N 45°35' W 122°46'4 7.4
2017-May-24 12:00N 45°39' W 122°46'4 7.3
2017-May-24 11:30N 45°43' W 122°46'4 7.1
2017-May-24 11:00N 45°46' W 122°46'4 7.1
2017-May-24 10:30N 45°50' W 122°47'3 7.0
2017-May-24 10:00N 45°53' W 122°48'4 7.1
2017-May-24 09:30N 45°57' W 122°49'4 7.4
2017-May-24 09:00N 45°60' W 122°51'4 7.2
2017-May-24 08:30N 46°03' W 122°53'3 5.2
2017-May-24 07:55N 46°05' W 122°56'0 0.9
2017-May-24 07:30N 46°06' W 122°56'3 6.8
2017-May-24 07:00N 46°08' W 123°00'3 6.6
2017-May-24 06:31N 46°10' W 123°04'3 6.6
2017-May-24 06:00N 46°11' W 123°08'3 6.1
2017-May-24 05:31N 46°10' W 123°13'3 6.0
2017-May-24 05:00N 46°09' W 123°16'3 6.5
2017-May-24 04:30N 46°09' W 123°21'3 6.1
2017-May-24 04:00N 46°10' W 123°25'3 6.2
2017-May-24 03:30N 46°13' W 123°26'3 6.4
2017-May-24 03:00N 46°16' W 123°29'3 6.6
2017-May-24 02:30N 46°15' W 123°33'0 0.9
2017-May-24 02:01N 46°15' W 123°33'0 0.6
2017-May-24 01:30N 46°15' W 123°33'1 2.5
2017-May-24 01:00N 46°16' W 123°32'3 5.3
2017-May-24 00:30N 46°16' W 123°28'0 0.5
2017-May-23 23:59N 46°16' W 123°28'0 0.2
2017-May-23 23:30N 46°16' W 123°28'2 3.9
2017-May-23 23:00N 46°15' W 123°26'2 4.9
2017-May-23 22:30N 46°12' W 123°26'3 5.2
2017-May-23 22:00N 46°10' W 123°24'2 5.0
2017-May-23 21:30N 46°09' W 123°21'3 5.2
2017-May-23 21:00N 46°09' W 123°17'3 5.7
2017-May-23 20:30N 46°10' W 123°13'3 5.9
2017-May-23 20:00N 46°11' W 123°10'3 5.3
2017-May-23 19:30N 46°10' W 123°06'3 6.0
2017-May-23 19:00N 46°09' W 123°02'3 6.7
2017-May-23 18:30N 46°07' W 122°58'4 7.1
2017-May-23 18:00N 46°05' W 122°54'3 6.8
2017-May-23 17:30N 46°02' W 122°52'4 7.2
2017-May-23 17:00N 45°58' W 122°50'3 7.0
2017-May-23 16:30N 45°55' W 122°49'4 7.1
2017-May-23 16:00N 45°52' W 122°47'3 6.8
2017-May-23 15:30N 45°48' W 122°47'3 6.7
2017-May-23 15:00N 45°45' W 122°46'7 6.5
2017-May-23 14:00N 45°39' W 122°45'1 1.9
2017-May-23 13:30N 45°38' W 122°44'1 0.1
2017-May-23 03:34N 45°37' W 122°43'0 0.8
2017-May-23 03:30N 45°37' W 122°43'3 5.5
2017-May-23 03:00N 45°39' W 122°46'3 7.0
2017-May-23 02:30N 45°35' W 122°46'3 4.6
2017-May-23 01:55N 45°34' W 122°43'0 0.0
2017-May-23 01:13N 45°34' W 122°43'0 0.0
2017-May-23 00:55N 45°34' W 122°43'0 0.0
2017-May-23 00:28N 45°34' W 122°43'0 0.2
2017-May-23 00:00N 45°34' W 122°43'3 6.9
2017-May-22 23:30N 45°36' W 122°47'3 6.5
2017-May-22 23:01N 45°39' W 122°46'3 4.9
2017-May-22 22:26N 45°37' W 122°43'0 0.0
2017-May-22 21:59N 45°37' W 122°43'0 0.0
2017-May-22 21:30N 45°37' W 122°43'0 0.3
2017-May-22 20:51N 45°37' W 122°43'0 0.0
2017-May-22 20:21N 45°37' W 122°43'0 0.0
2017-May-22 20:00N 45°37' W 122°43'0 0.0
2017-May-22 19:30N 45°37' W 122°43'0 0.0
2017-May-22 19:00N 45°37' W 122°43'0 0.1
2017-May-22 18:28N 45°37' W 122°43'0 0.2
2017-May-22 17:53N 45°37' W 122°43'0 0.3
2017-May-22 17:29N 45°37' W 122°43'0 0.0
2017-May-22 16:59N 45°37' W 122°43'0 0.8
2017-May-22 16:30N 45°38' W 122°44'0 0.5
2017-May-22 16:00N 45°38' W 122°44'0 0.0
2017-May-22 15:30N 45°38' W 122°44'0 0.3
2017-May-22 15:00N 45°38' W 122°44'1 0.8
2017-May-22 13:57N 45°37' W 122°43'  
2017-May-19 21:38N 45°37' W 122°43'0 1.1
2017-May-19 21:31N 45°37' W 122°43'0 0.1
2017-May-19 20:55N 45°37' W 122°43'0 0.1
2017-May-19 20:30N 45°37' W 122°43'0 0.1
2017-May-19 20:00N 45°37' W 122°43'0 0.2
2017-May-19 19:30N 45°37' W 122°43'0 0.2
2017-May-19 18:58N 45°37' W 122°43'0 0.3
2017-May-19 18:30N 45°37' W 122°43'0 0.1
2017-May-19 17:58N 45°37' W 122°43'0 0.0
2017-May-19 17:28N 45°37' W 122°43'0 0.1
2017-May-19 17:00N 45°37' W 122°43'0 0.9
2017-May-19 16:30N 45°37' W 122°43'0 0.2
2017-May-19 16:00N 45°37' W 122°43'0 0.0
2017-May-19 15:30N 45°37' W 122°43'0 0.2
2017-May-19 15:00N 45°37' W 122°43'0 0.1
2017-May-19 13:58N 45°37' W 122°43'0 0.0
2017-May-18 21:53N 45°37' W 122°43'1 1.6
2017-May-18 21:30N 45°38' W 122°44'1 1.2
2017-May-18 21:00N 45°37' W 122°43'0 0.0
2017-May-18 20:25N 45°37' W 122°43'0 0.4
2017-May-18 20:00N 45°37' W 122°43'0 0.0
2017-May-18 19:30N 45°37' W 122°43'0 0.3
2017-May-18 19:00N 45°37' W 122°43'0 0.1
2017-May-18 18:30N 45°37' W 122°43'0 0.2
2017-May-18 18:01N 45°37' W 122°43'0 0.1
2017-May-18 17:30N 45°37' W 122°43'0 0.8
2017-May-18 17:00N 45°37' W 122°43'0 0.6
2017-May-18 16:30N 45°37' W 122°43'0 0.6
2017-May-18 16:00N 45°37' W 122°43'0 0.0
2017-May-17 21:53N 45°37' W 122°43'1 1.8
2017-May-17 21:30N 45°38' W 122°44'0 0.8
2017-May-17 21:00N 45°37' W 122°43'0 0.2
2017-May-17 20:30N 45°37' W 122°43'0 0.0
2017-May-17 19:41N 45°37' W 122°43'0 0.0
2017-May-17 19:29N 45°37' W 122°43'0 0.0
2017-May-17 18:59N 45°37' W 122°43'0 0.1
2017-May-17 18:30N 45°37' W 122°43'0 0.5
2017-May-17 18:00N 45°37' W 122°43'0 0.2
2017-May-17 17:30N 45°37' W 122°43'0 0.1
2017-May-17 17:00N 45°37' W 122°43'0 0.1
2017-May-17 16:30N 45°37' W 122°43'0 0.1
2017-May-17 15:56N 45°38' W 122°43'0 0.1
2017-May-17 15:30N 45°37' W 122°43'0 0.1
2017-May-17 14:56N 45°38' W 122°43'1 0.5
2017-May-17 13:54N 45°37' W 122°43'0 0.0
2017-May-17 13:27N 45°37' W 122°43'  
Track history (hours):
 
Tides and Currents Weather Stations Pressure Air Temp Water Temp Dewpoint Dewpoint Depression Visibility Wind Speed Wind Dir Waves Ship Positions

Clackamas

Owner: Port o Portland, Portland, OR. More information available from US FCC via Universal Licensing System and Coast Guard Vessel Documentation Center.

Last reported at 2017-May-27 00:12 UTC. Time now 2017-May-28 01:10 UTC.
Position N 45°37' W 122°43'.

MMSI: 367476049.

Date/timePositionNaut miles runAvg speedWind from/ knotsBaromVisibWave heightAir tempDewpointWater temp
2017-May-27 00:12N 45°37' W 122°43'0 2.1
2017-May-27 00:00N 45°37' W 122°43'2 4.1
2017-May-26 23:31N 45°39' W 122°45'3 5.9
2017-May-26 23:01N 45°36' W 122°47'3 6.6
2017-May-26 22:30N 45°34' W 122°43'0 0.0
2017-May-26 21:57N 45°34' W 122°43'0 0.0
2017-May-26 21:24N 45°34' W 122°43'0 0.0
2017-May-26 21:00N 45°34' W 122°43'0 0.0
2017-May-26 20:30N 45°34' W 122°43'0 0.0
2017-May-26 19:48N 45°34' W 122°43'0 0.0
2017-May-26 19:30N 45°34' W 122°43'0 0.1
2017-May-26 18:59N 45°34' W 122°43'0 0.1
2017-May-26 18:30N 45°34' W 122°43'0 0.0
2017-May-26 17:58N 45°34' W 122°43'0 0.0
2017-May-26 17:30N 45°34' W 122°43'0 0.1
2017-May-26 17:00N 45°34' W 122°43'0 0.0
2017-May-26 16:30N 45°34' W 122°43'0 0.0
2017-May-26 16:00N 45°34' W 122°43'0 0.0
2017-May-26 15:30N 45°34' W 122°43'0 0.0
2017-May-26 15:00N 45°34' W 122°43'0 0.1
2017-May-26 14:31N 45°34' W 122°43'0 0.0
2017-May-24 21:42N 45°34' W 122°43'0 0.0
2017-May-24 21:27N 45°34' W 122°43'0 0.0
2017-May-24 21:00N 45°34' W 122°43'0 0.0
2017-May-24 20:30N 45°34' W 122°43'0 0.0
2017-May-24 19:57N 45°34' W 122°43'0 0.0
2017-May-24 19:21N 45°34' W 122°43'0 0.0
2017-May-24 18:57N 45°34' W 122°43'0 0.0
2017-May-24 18:30N 45°34' W 122°43'0 0.0
2017-May-24 17:58N 45°34' W 122°43'0 0.0
2017-May-24 17:28N 45°34' W 122°43'0 0.0
2017-May-24 17:01N 45°34' W 122°43'0 0.2
2017-May-24 16:26N 45°34' W 122°43'0 0.2
2017-May-24 15:56N 45°34' W 122°43'0 0.1
2017-May-24 15:28N 45°34' W 122°43'0 0.0
2017-May-24 14:55N 45°34' W 122°43'0 0.0
2017-May-24 14:28N 45°34' W 122°43'0 0.0
2017-May-24 13:25N 45°34' W 122°43'0 0.0
2017-May-24 12:59N 45°34' W 122°43'3 5.4
2017-May-24 12:30N 45°35' W 122°46'4 7.4
2017-May-24 12:00N 45°39' W 122°46'4 7.3
2017-May-24 11:30N 45°43' W 122°46'4 7.1
2017-May-24 11:00N 45°46' W 122°46'4 7.1
2017-May-24 10:30N 45°50' W 122°47'3 7.0
2017-May-24 10:00N 45°53' W 122°48'4 7.1
2017-May-24 09:30N 45°57' W 122°49'4 7.4
2017-May-24 09:00N 45°60' W 122°51'4 7.2
2017-May-24 08:30N 46°03' W 122°53'3 5.2
2017-May-24 07:55N 46°05' W 122°56'0 0.9
2017-May-24 07:30N 46°06' W 122°56'3 6.8
2017-May-24 07:00N 46°08' W 123°00'3 6.6
2017-May-24 06:31N 46°10' W 123°04'3 6.6
2017-May-24 06:00N 46°11' W 123°08'3 6.1
2017-May-24 05:31N 46°10' W 123°13'3 6.0
2017-May-24 05:00N 46°09' W 123°16'3 6.5
2017-May-24 04:30N 46°09' W 123°21'3 6.1
2017-May-24 04:00N 46°10' W 123°25'3 6.2
2017-May-24 03:30N 46°13' W 123°26'3 6.4
2017-May-24 03:00N 46°16' W 123°29'3 6.6
2017-May-24 02:30N 46°15' W 123°33'0 0.9
2017-May-24 02:01N 46°15' W 123°33'0 0.6
2017-May-24 01:30N 46°15' W 123°33'1 2.5
2017-May-24 01:00N 46°16' W 123°32'3 5.3
2017-May-24 00:30N 46°16' W 123°28'0 0.5
2017-May-23 23:59N 46°16' W 123°28'0 0.2
2017-May-23 23:30N 46°16' W 123°28'2 3.9
2017-May-23 23:00N 46°15' W 123°26'2 4.9
2017-May-23 22:30N 46°12' W 123°26'3 5.2
2017-May-23 22:00N 46°10' W 123°24'2 5.0
2017-May-23 21:30N 46°09' W 123°21'3 5.2
2017-May-23 21:00N 46°09' W 123°17'3 5.7
2017-May-23 20:30N 46°10' W 123°13'3 5.9
2017-May-23 20:00N 46°11' W 123°10'3 5.3
2017-May-23 19:30N 46°10' W 123°06'3 6.0
2017-May-23 19:00N 46°09' W 123°02'3 6.7
2017-May-23 18:30N 46°07' W 122°58'4 7.1
2017-May-23 18:00N 46°05' W 122°54'3 6.8
2017-May-23 17:30N 46°02' W 122°52'4 7.2
2017-May-23 17:00N 45°58' W 122°50'3 7.0
2017-May-23 16:30N 45°55' W 122°49'4 7.1
2017-May-23 16:00N 45°52' W 122°47'3 6.8
2017-May-23 15:30N 45°48' W 122°47'3 6.7
2017-May-23 15:00N 45°45' W 122°46'7 6.5
2017-May-23 14:00N 45°39' W 122°45'1 1.9
2017-May-23 13:30N 45°38' W 122°44'1 0.1
2017-May-23 03:34N 45°37' W 122°43'0 0.8
2017-May-23 03:30N 45°37' W 122°43'3 5.5
2017-May-23 03:00N 45°39' W 122°46'3 7.0
2017-May-23 02:30N 45°35' W 122°46'3 4.6
2017-May-23 01:55N 45°34' W 122°43'0 0.0
2017-May-23 01:13N 45°34' W 122°43'0 0.0
2017-May-23 00:55N 45°34' W 122°43'0 0.0
2017-May-23 00:28N 45°34' W 122°43'0 0.2
2017-May-23 00:00N 45°34' W 122°43'3 6.9
2017-May-22 23:30N 45°36' W 122°47'3 6.5
2017-May-22 23:01N 45°39' W 122°46'3 4.9
2017-May-22 22:26N 45°37' W 122°43'0 0.0
2017-May-22 21:59N 45°37' W 122°43'0 0.0
2017-May-22 21:30N 45°37' W 122°43'0 0.3
2017-May-22 20:51N 45°37' W 122°43'0 0.0
2017-May-22 20:21N 45°37' W 122°43'0 0.0
2017-May-22 20:00N 45°37' W 122°43'0 0.0
2017-May-22 19:30N 45°37' W 122°43'0 0.0
2017-May-22 19:00N 45°37' W 122°43'0 0.1
2017-May-22 18:28N 45°37' W 122°43'0 0.2
2017-May-22 17:53N 45°37' W 122°43'0 0.3
2017-May-22 17:29N 45°37' W 122°43'0 0.0
2017-May-22 16:59N 45°37' W 122°43'0 0.8
2017-May-22 16:30N 45°38' W 122°44'0 0.5
2017-May-22 16:00N 45°38' W 122°44'0 0.0
2017-May-22 15:30N 45°38' W 122°44'0 0.3
2017-May-22 15:00N 45°38' W 122°44'1 0.8
2017-May-22 13:57N 45°37' W 122°43'  
2017-May-19 21:38N 45°37' W 122°43'0 1.1
2017-May-19 21:31N 45°37' W 122°43'0 0.1
2017-May-19 20:55N 45°37' W 122°43'0 0.1
2017-May-19 20:30N 45°37' W 122°43'0 0.1
2017-May-19 20:00N 45°37' W 122°43'0 0.2
2017-May-19 19:30N 45°37' W 122°43'0 0.2
2017-May-19 18:58N 45°37' W 122°43'0 0.3
2017-May-19 18:30N 45°37' W 122°43'0 0.1
2017-May-19 17:58N 45°37' W 122°43'0 0.0
2017-May-19 17:28N 45°37' W 122°43'0 0.1
2017-May-19 17:00N 45°37' W 122°43'0 0.9
2017-May-19 16:30N 45°37' W 122°43'0 0.2
2017-May-19 16:00N 45°37' W 122°43'0 0.0
2017-May-19 15:30N 45°37' W 122°43'0 0.2
2017-May-19 15:00N 45°37' W 122°43'0 0.1
2017-May-19 13:58N 45°37' W 122°43'0 0.0
2017-May-18 21:53N 45°37' W 122°43'1 1.6
2017-May-18 21:30N 45°38' W 122°44'1 1.2
2017-May-18 21:00N 45°37' W 122°43'0 0.0
2017-May-18 20:25N 45°37' W 122°43'0 0.4
2017-May-18 20:00N 45°37' W 122°43'0 0.0
2017-May-18 19:30N 45°37' W 122°43'0 0.3
2017-May-18 19:00N 45°37' W 122°43'0 0.1
2017-May-18 18:30N 45°37' W 122°43'0 0.2
2017-May-18 18:01N 45°37' W 122°43'0 0.1
2017-May-18 17:30N 45°37' W 122°43'0 0.8
2017-May-18 17:00N 45°37' W 122°43'0 0.6
2017-May-18 16:30N 45°37' W 122°43'0 0.6
2017-May-18 16:00N 45°37' W 122°43'0 0.0
2017-May-17 21:53N 45°37' W 122°43'1 1.8
2017-May-17 21:30N 45°38' W 122°44'0 0.8
2017-May-17 21:00N 45°37' W 122°43'0 0.2
2017-May-17 20:30N 45°37' W 122°43'0 0.0
2017-May-17 19:41N 45°37' W 122°43'0 0.0
2017-May-17 19:29N 45°37' W 122°43'0 0.0
2017-May-17 18:59N 45°37' W 122°43'0 0.1
2017-May-17 18:30N 45°37' W 122°43'0 0.5
2017-May-17 18:00N 45°37' W 122°43'0 0.2
2017-May-17 17:30N 45°37' W 122°43'0 0.1
2017-May-17 17:00N 45°37' W 122°43'0 0.1
2017-May-17 16:30N 45°37' W 122°43'0 0.1
2017-May-17 15:56N 45°38' W 122°43'0 0.1
2017-May-17 15:30N 45°37' W 122°43'0 0.1
2017-May-17 14:56N 45°38' W 122°43'1 0.5
2017-May-17 13:54N 45°37' W 122°43'0 0.0
2017-May-17 13:27N 45°37' W 122°43'  

Dump ship's entire track history